Time;durP1;ratioP1;P1;durP2;ratioP2;P2;SDS_P1;SDS_P2;PMS_P1;PMS_P2;Temp;Humidity;BMP_temperature;BMP_pressure;BME280_temperature;BME280_humidity;BME280_pressure;Samples;Min_cycle;Max_cycle;Signal;HPM_P1;HPM_P2
2022/03/26 00:01:37;;;;;;;12.30;5.00;;;;;;;8.18;55.87;103057.03;5034464;28;20079;-82
2022/03/26 00:04:03;;;;;;;11.83;4.60;;;;;;;8.13;57.14;103052.56;5034736;28;20029;-81
2022/03/26 00:06:28;;;;;;;9.10;4.60;;;;;;;8.11;56.71;103064.56;5044836;28;20032;-80
2022/03/26 00:08:54;;;;;;;10.50;4.90;;;;;;;8.06;55.44;103053.19;5044444;28;20080;-79
2022/03/26 00:11:20;;;;;;;10.70;4.80;;;;;;;8.00;56.03;103051.28;5033966;28;20024;-81
2022/03/26 00:13:45;;;;;;;13.20;5.47;;;;;;;7.96;55.62;103047.72;5033336;28;20021;-81
2022/03/26 00:16:11;;;;;;;12.03;5.30;;;;;;;7.91;55.90;103056.19;5034387;28;20022;-81
2022/03/26 00:18:36;;;;;;;14.33;5.97;;;;;;;7.89;55.93;103053.56;5033983;28;20362;-81
2022/03/26 00:21:01;;;;;;;13.27;6.00;;;;;;;7.86;55.56;103054.34;5033165;28;20057;-81
2022/03/26 00:23:26;;;;;;;13.75;5.93;;;;;;;7.82;55.33;103046.44;5033752;28;20033;-81
2022/03/26 00:25:52;;;;;;;13.35;5.68;;;;;;;7.76;55.40;103041.06;5034077;28;20384;-81
2022/03/26 00:28:19;;;;;;;14.03;6.13;;;;;;;7.74;55.87;103046.19;5032640;28;20038;-81
2022/03/26 00:30:45;;;;;;;13.43;6.03;;;;;;;7.65;56.20;103033.84;5034134;28;20026;-82
2022/03/26 00:33:10;;;;;;;11.27;5.23;;;;;;;7.68;56.65;103041.72;5033383;28;20075;-81
2022/03/26 00:35:36;;;;;;;12.33;5.33;;;;;;;7.62;56.09;103044.06;5033331;28;20034;-82
2022/03/26 00:38:01;;;;;;;12.73;5.10;;;;;;;7.58;55.85;103040.53;5033998;28;20377;-81
2022/03/26 00:40:26;;;;;;;13.20;5.50;;;;;;;7.55;55.79;103042.13;5032561;28;20049;-81
2022/03/26 00:42:51;;;;;;;12.17;5.00;;;;;;;7.51;57.73;103041.16;5033345;28;20107;-82
2022/03/26 00:45:17;;;;;;;10.70;5.37;;;;;;;7.48;56.20;103050.53;5033534;28;20025;-81
2022/03/26 00:47:42;;;;;;;13.10;5.77;;;;;;;7.46;56.02;103047.00;5032873;28;20384;-81
2022/03/26 00:50:08;;;;;;;14.23;6.18;;;;;;;7.42;56.15;103049.47;5033549;28;20051;-81
2022/03/26 00:52:34;;;;;;;13.43;6.07;;;;;;;7.38;57.00;103050.19;5033203;28;20023;-82
2022/03/26 00:54:59;;;;;;;14.40;6.00;;;;;;;7.34;56.10;103048.34;5032734;28;20087;-81
2022/03/26 00:57:25;;;;;;;14.13;5.57;;;;;;;7.30;56.57;103049.06;5033194;28;20152;-82
2022/03/26 00:59:58;;;;;;;14.40;5.83;;;;;;;7.26;56.79;103048.09;5033534;28;20057;-81
2022/03/26 01:02:24;;;;;;;12.93;5.25;;;;;;;7.22;56.52;103048.78;5032096;28;20386;-82
2022/03/26 01:04:49;;;;;;;13.63;5.60;;;;;;;7.19;56.36;103035.81;5033144;28;20029;-81
2022/03/26 01:07:14;;;;;;;12.70;5.53;;;;;;;7.14;56.43;103034.75;5033057;28;20070;-82
2022/03/26 01:09:39;;;;;;;12.73;5.68;;;;;;;7.16;57.01;103043.44;5032070;28;20038;-81
2022/03/26 01:12:06;;;;;;;12.90;5.38;;;;;;;7.14;56.84;103039.06;5033022;28;20381;-81
2022/03/26 01:14:31;;;;;;;13.03;5.40;;;;;;;7.08;56.70;103031.97;5032638;28;20484;-81
2022/03/26 01:16:56;;;;;;;12.43;5.53;;;;;;;7.07;56.79;103037.97;5032589;28;20276;-81
2022/03/26 01:19:21;;;;;;;12.83;5.20;;;;;;;7.04;56.86;103032.69;5032827;28;20030;-81
2022/03/26 01:21:47;;;;;;;13.75;5.72;;;;;;;7.02;57.25;103036.91;5032804;28;20125;-81
2022/03/26 01:24:13;;;;;;;13.98;5.65;;;;;;;7.02;57.06;103039.50;5032260;28;20021;-81
2022/03/26 01:26:38;;;;;;;13.25;5.85;;;;;;;6.98;57.32;103035.06;5032500;28;20044;-81
2022/03/26 01:29:04;;;;;;;14.82;6.10;;;;;;;6.93;57.13;103038.34;5032761;28;20117;-81
2022/03/26 01:31:30;;;;;;;14.07;6.40;;;;;;;6.91;57.01;103036.56;5031972;28;20029;-81
2022/03/26 01:33:55;;;;;;;15.38;6.70;;;;;;;6.88;57.88;103041.59;5032989;28;20079;-81
2022/03/26 01:36:22;;;;;;;15.05;6.25;;;;;;;6.82;59.10;103044.84;5032608;28;20061;-81
2022/03/26 01:38:47;;;;;;;15.73;6.13;;;;;;;6.78;57.63;103050.69;5032638;28;20092;-82
2022/03/26 01:41:13;;;;;;;13.05;6.03;;;;;;;6.69;59.32;103040.94;5032485;28;20080;-81
2022/03/26 01:43:42;;;;;;;12.77;5.47;;;;;;;6.64;58.15;103048.50;5031961;28;20028;-82
2022/03/26 01:46:10;;;;;;;13.70;5.57;;;;;;;6.61;58.81;103050.09;5032194;28;20025;-81
2022/03/26 01:48:37;;;;;;;15.23;6.63;;;;;;;6.55;60.27;103043.00;5032226;28;20120;-81
2022/03/26 01:51:14;;;;;;;14.27;6.05;;;;;;;6.54;59.39;103048.97;5032154;28;20037;-81
2022/03/26 01:53:49;;;;;;;15.02;6.38;;;;;;;6.50;58.90;103044.53;5032401;28;20026;-81
2022/03/26 01:56:16;;;;;;;15.18;6.35;;;;;;;6.48;58.81;103041.03;5033084;28;20025;-81
2022/03/26 01:58:42;;;;;;;;;;;;;;;6.48;58.86;103046.19;5031532;28;20063;-81
2022/03/26 02:01:07;;;;;;;15.20;6.40;;;;;;;6.46;59.01;103045.25;5032610;28;19920;-81
2022/03/26 02:03:33;;;;;;;14.13;5.97;;;;;;;6.44;59.22;103045.19;5032214;28;20276;-81
2022/03/26 02:05:58;;;;;;;13.32;5.78;;;;;;;6.43;59.00;103048.59;5031734;28;20496;-81
2022/03/26 02:08:24;;;;;;;13.25;5.63;;;;;;;6.40;58.94;103045.03;5031960;28;20032;-81
2022/03/26 02:10:50;;;;;;;13.07;5.50;;;;;;;6.38;58.97;103046.66;5032737;28;20026;-81
2022/03/26 02:13:18;;;;;;;13.63;5.53;;;;;;;6.36;59.16;103044.00;5031711;28;20029;-81
2022/03/26 02:15:44;;;;;;;12.77;5.40;;;;;;;6.33;59.07;103042.19;5034741;28;20041;-81
2022/03/26 02:18:12;;;;;;;13.23;5.67;;;;;;;6.32;58.74;103037.88;5036343;28;20048;-81
2022/03/26 02:20:38;;;;;;;15.23;5.95;;;;;;;6.30;59.01;103039.53;5035209;28;20428;-81
2022/03/26 02:23:04;;;;;;;12.18;5.35;;;;;;;6.26;59.15;103032.50;5036028;28;20025;-82
2022/03/26 02:25:30;;;;;;;13.32;5.65;;;;;;;6.24;61.88;103047.00;5036084;28;20044;-81
2022/03/26 02:27:55;;;;;;;12.47;5.40;;;;;;;6.20;61.05;103045.13;5035424;28;20014;-81
2022/03/26 02:30:21;;;;;;;13.68;5.63;;;;;;;6.15;59.64;103042.38;5035848;28;20441;-81
2022/03/26 02:32:47;;;;;;;12.98;5.50;;;;;;;6.13;59.46;103045.72;5035174;28;20032;-81
2022/03/26 02:35:13;;;;;;;13.20;5.63;;;;;;;6.08;59.60;103036.94;5036118;28;20025;-81
2022/03/26 02:37:38;;;;;;;15.40;6.00;;;;;;;6.05;59.48;103037.69;5035632;28;20079;-81
2022/03/26 02:40:07;;;;;;;13.50;5.67;;;;;;;6.02;60.16;103041.03;5035341;28;20028;-81
2022/03/26 02:42:33;;;;;;;13.40;5.90;;;;;;;6.00;60.27;103037.50;5035774;28;20096;-81
2022/03/26 02:44:58;;;;;;;14.27;5.88;;;;;;;5.95;60.71;103041.59;5036012;28;20108;-81
2022/03/26 02:47:23;;;;;;;13.90;5.63;;;;;;;5.91;60.39;103041.41;5034976;28;20489;-81
2022/03/26 02:49:48;;;;;;;13.18;5.82;;;;;;;5.87;60.30;103041.28;5035749;28;20036;-81
2022/03/26 02:52:14;;;;;;;14.38;6.30;;;;;;;5.84;60.29;103035.13;5035745;28;20363;-81
2022/03/26 02:54:39;;;;;;;14.90;5.60;;;;;;;5.83;60.35;103041.09;5034457;28;20029;-81
2022/03/26 02:57:04;;;;;;;14.18;5.93;;;;;;;5.79;60.40;103036.63;5035647;28;20029;-81
2022/03/26 02:59:30;;;;;;;13.95;6.07;;;;;;;5.78;61.07;103029.72;5035419;28;20028;-81
2022/03/26 03:01:55;;;;;;;14.82;5.90;;;;;;;5.72;61.38;103027.78;5035303;28;20354;-81
2022/03/26 03:04:21;;;;;;;11.85;5.07;;;;;;;5.72;60.83;103030.34;5035218;28;20071;-81
2022/03/26 03:06:47;;;;;;;12.13;5.38;;;;;;;5.70;60.80;103032.88;5035327;28;20025;-81
2022/03/26 03:09:15;;;;;;;13.00;5.47;;;;;;;5.68;60.77;103033.66;5034518;28;20065;-81
2022/03/26 03:11:40;;;;;;;12.57;5.18;;;;;;;5.64;61.14;103040.34;5035354;28;20076;-81
2022/03/26 03:14:07;;;;;;;12.23;5.40;;;;;;;5.62;61.34;103033.38;5035463;28;20022;-81
2022/03/26 03:16:33;;;;;;;13.43;5.63;;;;;;;5.60;61.18;103040.16;5034294;28;20041;-81
2022/03/26 03:18:58;;;;;;;14.85;5.90;;;;;;;5.60;60.93;103032.44;5035131;28;20034;-81
2022/03/26 03:21:23;;;;;;;13.13;5.20;;;;;;;5.57;61.50;103035.78;5034817;28;20101;-81
2022/03/26 03:23:49;;;;;;;12.87;5.50;;;;;;;5.57;61.50;103031.47;5034549;28;20029;-81
2022/03/26 03:26:20;;;;;;;11.02;4.97;;;;;;;5.56;61.84;103031.44;5034133;28;20033;-81
2022/03/26 03:28:45;;;;;;;14.45;5.80;;;;;;;5.53;60.83;103044.19;5035022;28;20436;-81
2022/03/26 03:31:10;;;;;;;12.23;5.13;;;;;;;5.49;60.89;103038.03;5034225;28;20096;-81
2022/03/26 03:33:36;;;;;;;14.38;5.72;;;;;;;5.48;60.95;103044.00;5034302;28;20030;-81
2022/03/26 03:36:02;;;;;;;13.40;5.55;;;;;;;5.45;61.35;103037.84;5033975;28;20108;-81
2022/03/26 03:38:27;;;;;;;11.75;5.15;;;;;;;5.38;61.36;103036.69;5034390;28;20052;-81
2022/03/26 03:40:55;;;;;;;13.02;5.35;;;;;;;5.37;61.45;103041.00;5034322;28;20049;-81
2022/03/26 03:43:22;;;;;;;12.15;5.20;;;;;;;5.35;62.26;103042.63;5032956;28;20105;-81
2022/03/26 03:45:48;;;;;;;10.20;4.43;;;;;;;5.32;61.60;103039.91;5033668;28;20072;-81
2022/03/26 03:48:13;;;;;;;9.75;4.40;;;;;;;5.29;62.42;103038.91;5033217;28;20037;-81
2022/03/26 03:50:38;;;;;;;10.52;4.50;;;;;;;5.21;62.17;103031.75;4984911;22;1165789;-81
2022/03/26 03:53:07;;;;;;;12.20;4.93;;;;;;;5.26;62.33;103044.81;5014890;28;20034;-81
2022/03/26 03:55:32;;;;;;;11.38;5.00;;;;;;;5.24;62.20;103046.44;5014588;28;20038;-81
2022/03/26 03:57:58;;;;;;;12.00;4.90;;;;;;;5.21;65.58;103041.16;5013959;28;20040;-81
2022/03/26 04:00:23;;;;;;;12.48;5.30;;;;;;;5.20;64.69;103053.16;5014477;28;20030;-81
2022/03/26 04:02:49;;;;;;;13.60;5.40;;;;;;;5.18;64.91;103048.75;5014588;28;20429;-81
2022/03/26 04:05:14;;;;;;;12.75;5.07;;;;;;;5.17;64.28;103047.88;5013766;28;20030;-81
2022/03/26 04:07:41;;;;;;;11.65;4.80;;;;;;;5.15;64.64;103056.34;5014119;28;20033;-81
2022/03/26 04:10:08;;;;;;;10.73;4.75;;;;;;;5.11;66.27;103050.19;5014329;28;20612;-81
2022/03/26 04:12:38;;;;;;;11.48;4.60;;;;;;;5.11;66.24;103055.34;5013481;28;20098;-81
2022/03/26 04:15:05;;;;;;;11.80;4.95;;;;;;;5.10;65.00;103045.84;5014608;28;20113;-81
2022/03/26 04:17:30;;;;;;;11.32;4.75;;;;;;;5.09;65.98;103046.66;5013921;28;20435;-81
2022/03/26 04:19:56;;;;;;;11.60;4.80;;;;;;;5.08;64.55;103050.91;5013720;28;20057;-81
2022/03/26 04:22:21;;;;;;;8.85;4.50;;;;;;;5.07;64.78;103045.72;5013985;28;20063;-81
2022/03/26 04:24:46;;;;;;;11.07;4.57;;;;;;;5.07;66.03;103051.72;5014215;28;20037;-81
2022/03/26 04:27:11;;;;;;;9.43;4.30;;;;;;;5.08;64.86;103053.50;5013541;28;20029;-81
2022/03/26 04:29:37;;;;;;;9.30;3.85;;;;;;;5.09;63.67;103062.09;5013751;28;20372;-81
2022/03/26 04:32:04;;;;;;;10.65;4.35;;;;;;;5.09;63.80;103054.38;5013900;28;20046;-81
2022/03/26 04:34:29;;;;;;;;;;;;;;;5.07;64.04;103059.44;5013592;28;20088;-81
2022/03/26 04:36:54;;;;;;;10.87;4.53;;;;;;;5.07;62.92;103053.44;5014121;28;19913;-81
2022/03/26 04:39:20;;;;;;;12.20;4.70;;;;;;;5.04;63.03;103051.63;5012406;28;20117;-81
2022/03/26 04:41:49;;;;;;;13.38;5.38;;;;;;;5.04;63.48;103054.19;5013870;28;20026;-81
2022/03/26 04:44:15;;;;;;;12.05;5.10;;;;;;;5.04;63.12;103050.72;5013803;28;20030;-81
2022/03/26 04:46:40;;;;;;;11.63;5.03;;;;;;;5.00;62.98;103047.13;5013079;28;20077;-81
2022/03/26 04:49:06;;;;;;;14.23;5.43;;;;;;;4.98;62.79;103046.19;5013688;28;20442;-81
2022/03/26 04:51:31;;;;;;;13.88;5.78;;;;;;;4.96;62.91;103047.81;5013701;28;20037;-81
2022/03/26 04:53:56;;;;;;;13.20;5.30;;;;;;;4.92;62.92;103049.38;5013120;28;20057;-81
2022/03/26 04:56:21;;;;;;;11.75;5.18;;;;;;;4.90;63.24;103047.56;5013476;28;20097;-81
2022/03/26 04:58:48;;;;;;;14.50;6.00;;;;;;;4.87;63.03;103047.41;5013711;28;20033;-81
2022/03/26 05:01:15;;;;;;;14.85;6.05;;;;;;;4.88;62.99;103051.75;5012907;28;20382;-81
2022/03/26 05:03:40;;;;;;;13.98;5.47;;;;;;;4.86;63.13;103051.69;5013731;28;20029;-81
2022/03/26 05:06:05;;;;;;;13.95;5.55;;;;;;;4.82;63.10;103046.34;5013558;28;20033;-81
2022/03/26 05:08:30;;;;;;;11.63;5.15;;;;;;;4.82;63.46;103056.63;5012425;28;20030;-81
2022/03/26 05:10:56;;;;;;;12.05;5.10;;;;;;;4.78;63.52;103060.78;5013647;28;20462;-80
2022/03/26 05:13:21;;;;;;;11.50;4.93;;;;;;;4.71;64.54;103049.31;5012727;28;20064;-81
2022/03/26 05:15:47;;;;;;;15.35;6.10;;;;;;;4.69;68.71;103056.09;5012592;28;20030;-81
2022/03/26 05:18:13;;;;;;;14.95;6.15;;;;;;;4.69;65.25;103056.09;5013276;28;20030;-81
2022/03/26 05:20:38;;;;;;;15.18;6.22;;;;;;;4.70;64.25;103060.44;5013249;28;20470;-81
2022/03/26 05:23:04;;;;;;;12.90;5.43;;;;;;;4.68;65.69;103063.72;5012729;28;20033;-81
2022/03/26 05:25:29;;;;;;;14.30;5.70;;;;;;;4.67;65.14;103062.00;5012903;28;20033;-81
2022/03/26 05:27:54;;;;;;;12.50;5.00;;;;;;;4.66;64.61;103062.78;5013152;28;20066;-81
2022/03/26 05:30:21;;;;;;;11.55;4.90;;;;;;;4.65;64.86;103064.47;5012316;28;20105;-81
2022/03/26 05:32:46;;;;;;;11.05;4.50;;;;;;;4.60;63.77;103071.13;5013348;28;20034;-81
2022/03/26 05:35:18;;;;;;;13.43;5.63;;;;;;;4.60;65.01;103077.13;5012882;28;20069;-81
2022/03/26 05:37:50;;;;;;;11.40;4.82;;;;;;;4.59;65.10;103071.91;5012365;28;20474;-81
2022/03/26 05:40:18;;;;;;;12.70;5.25;;;;;;;4.57;64.36;103071.84;5012807;28;20056;-81
2022/03/26 05:42:45;;;;;;;12.77;5.05;;;;;;;4.58;64.00;103077.88;5012202;28;20119;-81
2022/03/26 05:45:11;;;;;;;11.13;4.90;;;;;;;4.57;64.92;103082.13;5012715;28;20160;-81
2022/03/26 05:47:40;;;;;;;10.52;4.65;;;;;;;4.58;64.84;103090.72;5012397;28;20065;-81
2022/03/26 05:50:08;;;;;;;11.20;5.13;;;;;;;4.59;64.80;103095.06;5012966;28;20077;-81
2022/03/26 05:52:36;;;;;;;12.93;5.43;;;;;;;4.60;66.14;103095.13;5015435;28;20022;-82
2022/03/26 05:55:02;;;;;;;11.20;4.55;;;;;;;4.60;65.20;103097.69;5017017;28;20032;-82
2022/03/26 05:57:27;;;;;;;9.32;4.28;;;;;;;4.59;65.21;103089.94;5015909;28;20029;-81
2022/03/26 05:59:53;;;;;;;11.30;4.70;;;;;;;4.59;66.68;103100.22;5017119;28;20080;-82
2022/03/26 06:02:18;;;;;;;9.95;4.30;;;;;;;4.60;65.88;103097.69;5016214;28;20649;-82
2022/03/26 06:04:44;;;;;;;9.93;4.47;;;;;;;4.62;65.86;103100.34;5016045;28;20024;-82
2022/03/26 06:07:10;;;;;;;10.40;4.80;;;;;;;4.64;69.05;103101.28;5016778;28;20040;-82
2022/03/26 06:09:36;;;;;;;10.98;4.93;;;;;;;4.65;67.12;103103.06;5016369;28;20041;-81
2022/03/26 06:12:02;;;;;;;11.23;4.60;;;;;;;4.68;68.50;103100.63;5015885;28;20076;-82
2022/03/26 06:14:28;;;;;;;11.03;4.40;;;;;;;4.71;67.50;103099.88;5016255;28;20049;-81
2022/03/26 06:16:54;;;;;;;11.88;5.40;;;;;;;4.73;66.04;103099.13;5016786;28;20280;-81
2022/03/26 06:19:19;;;;;;;16.15;6.53;;;;;;;4.79;67.78;103099.41;5015648;28;20038;-82
2022/03/26 06:21:50;;;;;;;16.88;6.15;;;;;;;4.84;66.84;103097.06;5016904;28;20034;-81
2022/03/26 06:24:16;;;;;;;15.60;6.68;;;;;;;4.89;67.88;103102.41;5016588;28;20022;-81
2022/03/26 06:26:44;;;;;;;14.48;5.15;;;;;;;4.92;66.94;103099.97;5015809;28;20032;-81
2022/03/26 06:29:10;;;;;;;14.20;5.65;;;;;;;4.97;70.30;103102.75;5016641;28;20028;-81
2022/03/26 06:31:35;;;;;;;17.25;7.00;;;;;;;5.02;70.08;103098.66;5016345;28;20072;-81
2022/03/26 06:34:01;;;;;;;18.20;7.75;;;;;;;5.09;68.57;103103.28;5015097;28;20121;-81
2022/03/26 06:36:26;;;;;;;14.32;6.50;;;;;;;5.15;66.36;103113.84;5016260;28;20022;-81
2022/03/26 06:38:51;;;;;;;18.48;7.63;;;;;;;5.17;67.43;103114.78;5015633;28;20041;-81
2022/03/26 06:41:19;;;;;;;16.65;6.72;;;;;;;5.26;67.49;103122.91;5015816;28;20383;-82
2022/03/26 06:43:45;;;;;;;14.98;6.70;;;;;;;5.36;69.84;103126.78;5016230;28;20116;-82
2022/03/26 06:46:11;;;;;;;21.25;9.80;;;;;;;5.38;67.88;103122.59;5015369;28;20868;-82
2022/03/26 06:48:36;;;;;;;23.55;10.80;;;;;;;5.48;67.92;103121.25;5015756;28;20040;-81
2022/03/26 06:51:03;;;;;;;19.88;8.80;;;;;;;5.57;68.40;103120.78;5015765;28;20065;-80
2022/03/26 06:53:29;;;;;;;;;;;;;;;5.78;70.16;103122.47;5021864;28;20034;-81
2022/03/26 06:55:55;;;;;;;27.60;14.13;;;;;;;6.79;69.96;103123.03;5019135;28;19921;-81
2022/03/26 06:58:23;;;;;;;26.13;12.52;;;;;;;8.99;67.12;103113.75;5015663;28;20053;-82
2022/03/26 07:00:49;;;;;;;22.63;11.02;;;;;;;11.19;62.33;103113.63;5014923;28;20156;-83
2022/03/26 07:03:15;;;;;;;20.90;9.73;;;;;;;13.08;59.09;103116.38;5015747;28;20148;-82
2022/03/26 07:05:40;;;;;;;18.95;8.60;;;;;;;14.63;55.58;103120.19;5015451;28;20033;-80
2022/03/26 07:08:06;;;;;;;18.60;8.35;;;;;;;15.85;50.60;103122.16;5015433;28;20026;-80
2022/03/26 07:10:31;;;;;;;24.87;11.67;;;;;;;16.68;45.25;103130.66;5014976;28;20034;-80
2022/03/26 07:12:56;;;;;;;25.60;13.87;;;;;;;16.61;45.27;103128.94;5015891;28;20104;-80
2022/03/26 07:15:22;;;;;;;26.07;13.77;;;;;;;16.77;41.90;103125.41;5014509;28;20031;-80
2022/03/26 07:17:47;;;;;;;24.63;12.30;;;;;;;16.49;44.17;103128.13;5015569;28;20060;-80
2022/03/26 07:20:14;;;;;;;23.30;12.23;;;;;;;15.71;43.24;103129.13;5015733;28;20108;-80
2022/03/26 07:22:40;;;;;;;24.27;12.93;;;;;;;14.21;46.71;103125.19;5016252;28;20397;-80
2022/03/26 07:25:18;;;;;;;27.75;15.02;;;;;;;12.64;47.55;103129.78;5033495;28;20029;-80
2022/03/26 07:27:49;;;;;;;26.15;14.77;;;;;;;11.61;50.33;103132.56;5029334;28;20046;-80
2022/03/26 07:30:21;;;;;;;27.17;14.40;;;;;;;10.77;51.80;103143.13;5015750;28;20030;-80
2022/03/26 07:32:56;;;;;;;32.88;18.17;;;;;;;9.95;54.03;103131.75;5015236;28;20030;-80
2022/03/26 07:35:30;;;;;;;26.20;14.70;;;;;;;9.69;55.60;103136.31;5013917;28;20025;-80
2022/03/26 07:37:55;;;;;;;29.73;16.25;;;;;;;9.33;56.87;103143.16;5016351;28;20036;-80
2022/03/26 07:40:33;;;;;;;29.67;16.30;;;;;;;9.06;57.99;103132.94;5014837;28;20466;-80
2022/03/26 07:42:58;;;;;;;29.10;16.10;;;;;;;8.96;57.81;103149.91;5022209;28;20037;-80
2022/03/26 07:45:24;;;;;;;31.83;17.53;;;;;;;8.83;59.62;103150.38;5034381;28;20431;-80
2022/03/26 07:47:49;;;;;;;30.73;18.23;;;;;;;8.72;59.84;103148.38;5032356;28;20037;-82
2022/03/26 07:50:14;;;;;;;31.77;17.10;;;;;;;8.70;60.74;103150.03;5033497;28;20127;-80
2022/03/26 07:52:41;;;;;;;34.50;19.35;;;;;;;8.70;60.65;103144.00;5032580;28;20045;-81
2022/03/26 07:55:07;;;;;;;30.77;16.63;;;;;;;8.74;60.83;103146.72;5033124;28;20053;-81
2022/03/26 07:57:32;;;;;;;29.27;17.43;;;;;;;8.80;61.24;103149.47;5032128;28;20026;-82
2022/03/26 07:59:58;;;;;;;32.40;17.38;;;;;;;8.86;60.77;103153.94;5015819;28;20296;-81
2022/03/26 08:02:23;;;;;;;28.33;15.50;;;;;;;8.92;61.20;103151.53;5025528;28;20037;-81
2022/03/26 08:04:48;;;;;;;30.30;16.60;;;;;;;9.00;60.58;103153.47;5031984;28;20039;-82
2022/03/26 08:07:14;;;;;;;36.78;19.10;;;;;;;9.07;60.49;103153.69;5013652;28;20065;-82
2022/03/26 08:09:39;;;;;;;34.30;18.43;;;;;;;9.14;60.18;103156.44;5017422;28;20040;-81
2022/03/26 08:12:05;;;;;;;35.50;19.40;;;;;;;9.20;60.33;103154.03;5013257;28;20457;-81
2022/03/26 08:14:30;;;;;;;31.65;17.77;;;;;;;9.26;60.16;103152.50;5016620;28;20034;-82
2022/03/26 08:16:56;;;;;;;31.50;17.70;;;;;;;9.39;60.24;103161.47;5018591;28;20030;-80
2022/03/26 08:19:21;;;;;;;30.60;16.27;;;;;;;9.52;60.34;103161.78;5018377;28;20470;-78
2022/03/26 08:21:47;;;;;;;28.73;15.97;;;;;;;9.63;59.83;103157.75;5042416;28;20033;-78
2022/03/26 08:24:12;;;;;;;29.60;16.20;;;;;;;9.75;60.21;103164.97;5029510;28;20133;-79
2022/03/26 08:26:38;;;;;;;28.23;15.53;;;;;;;9.88;60.13;103168.78;5030785;28;20120;-80
2022/03/26 08:29:04;;;;;;;30.07;17.40;;;;;;;10.00;59.44;103173.38;5033706;28;20029;-80
2022/03/26 08:31:31;;;;;;;29.03;17.17;;;;;;;10.07;59.48;103164.91;5032562;28;20039;-82
2022/03/26 08:33:56;;;;;;;26.98;14.93;;;;;;;10.14;59.18;103160.72;5031963;28;20469;-83
2022/03/26 08:36:22;;;;;;;26.13;14.47;;;;;;;10.33;59.18;103172.41;5018660;28;20109;-84
2022/03/26 08:38:48;;;;;;;28.63;14.97;;;;;;;10.49;58.32;103179.75;5012992;28;20104;-84
2022/03/26 08:41:15;;;;;;;31.88;18.02;;;;;;;10.63;57.72;103181.78;5014018;28;20029;-83
2022/03/26 08:43:41;;;;;;;30.90;16.52;;;;;;;10.71;57.66;103175.03;5027379;28;20037;-83
2022/03/26 08:46:06;;;;;;;30.47;16.57;;;;;;;10.85;57.56;103182.25;5033002;28;20482;-83
2022/03/26 08:48:32;;;;;;;28.67;16.23;;;;;;;10.99;59.04;103182.53;5031201;28;20029;-83
2022/03/26 08:50:57;;;;;;;32.10;17.20;;;;;;;11.20;56.39;103179.50;5033164;28;20041;-83
2022/03/26 08:53:23;;;;;;;29.13;16.77;;;;;;;11.34;56.07;103177.16;5031013;28;20523;-83
2022/03/26 08:55:49;;;;;;;31.57;16.97;;;;;;;11.45;55.45;103180.84;5033638;28;20176;-83
2022/03/26 08:58:14;;;;;;;28.85;15.88;;;;;;;11.59;55.18;103181.09;5033499;28;20029;-83
2022/03/26 09:00:40;;;;;;;31.37;17.43;;;;;;;11.73;53.47;103178.72;5032465;28;20026;-83
2022/03/26 09:03:05;;;;;;;28.50;16.17;;;;;;;11.83;53.71;103178.03;5033248;28;20030;-84
2022/03/26 09:05:30;;;;;;;32.23;16.67;;;;;;;11.95;53.70;103184.28;5031497;28;20083;-83
2022/03/26 09:07:56;;;;;;;29.73;16.43;;;;;;;12.04;54.27;103176.69;5032499;28;20029;-82
2022/03/26 09:10:22;;;;;;;27.00;14.83;;;;;;;12.23;53.93;103188.22;5033054;28;20029;-85
2022/03/26 09:12:47;;;;;;;29.48;16.05;;;;;;;12.40;52.54;103180.66;5033375;28;20091;-83
2022/03/26 09:15:13;;;;;;;26.13;14.30;;;;;;;12.52;53.06;103180.00;5032463;28;20367;-85
2022/03/26 09:17:38;;;;;;;25.73;13.30;;;;;;;12.65;52.64;103176.72;5032729;28;20062;-86
2022/03/26 09:20:05;;;;;;;28.27;14.77;;;;;;;12.83;51.16;103188.22;5031319;28;20049;-80
2022/03/26 09:22:30;;;;;;;26.67;14.52;;;;;;;12.97;51.09;103178.84;5032153;28;20075;-80
2022/03/26 09:24:56;;;;;;;27.97;15.00;;;;;;;13.07;50.84;103190.22;5030448;28;20037;-80
2022/03/26 09:27:21;;;;;;;28.83;15.67;;;;;;;13.21;49.36;103185.19;5013095;28;20034;-82
2022/03/26 09:29:51;;;;;;;26.60;14.00;;;;;;;13.32;49.68;103189.66;5011831;28;20379;-81
2022/03/26 09:32:16;;;;;;;25.38;13.75;;;;;;;13.47;48.77;103183.75;5012719;28;20033;-80
2022/03/26 09:34:42;;;;;;;27.27;14.67;;;;;;;13.58;49.97;103184.75;5012250;28;20029;-82
2022/03/26 09:37:08;;;;;;;22.67;11.80;;;;;;;13.68;50.30;103183.97;5013081;28;20022;-82
2022/03/26 09:39:33;;;;;;;23.37;11.57;;;;;;;13.83;50.09;103177.13;5012800;28;20501;-81
2022/03/26 09:41:58;;;;;;;21.87;10.50;;;;;;;13.95;50.62;103182.47;5012248;28;20025;-80
2022/03/26 09:44:24;;;;;;;23.50;11.73;;;;;;;14.11;47.59;103180.84;5012715;28;20033;-80
2022/03/26 09:46:49;;;;;;;28.27;14.53;;;;;;;14.17;48.11;103178.25;5013079;28;20030;-81
2022/03/26 09:49:15;;;;;;;27.13;14.53;;;;;;;14.24;48.02;103176.56;5012127;28;20144;-80
2022/03/26 09:51:40;;;;;;;24.90;13.53;;;;;;;14.31;48.90;103178.34;5012808;28;20022;-80
2022/03/26 09:54:07;;;;;;;25.83;13.23;;;;;;;14.44;47.75;103178.41;5012276;28;20030;-80
2022/03/26 09:56:34;;;;;;;24.67;12.43;;;;;;;14.54;46.40;103179.34;5011955;28;20030;-80
2022/03/26 09:58:59;;;;;;;28.42;15.23;;;;;;;14.57;46.24;103171.53;5017315;28;20091;-80
2022/03/26 10:01:26;;;;;;;27.73;15.40;;;;;;;14.61;47.21;103182.00;5032408;28;20462;-82
2022/03/26 10:04:06;;;;;;;27.48;16.08;;;;;;;14.67;46.08;103176.84;5032103;28;20026;-82
2022/03/26 10:06:34;;;;;;;29.55;15.77;;;;;;;14.77;45.54;103176.88;5032497;28;20124;-80
2022/03/26 10:08:59;;;;;;;27.08;14.95;;;;;;;14.85;45.77;103175.19;5032508;28;20033;-82
2022/03/26 10:11:24;;;;;;;26.57;13.77;;;;;;;15.01;45.64;103178.72;5029831;28;20120;-80
2022/03/26 10:13:52;;;;;;;29.07;14.60;;;;;;;15.07;46.04;103180.50;5032614;28;20473;-82
2022/03/26 10:16:17;;;;;;;22.23;11.68;;;;;;;15.20;45.30;103168.31;5032404;28;20034;-80
2022/03/26 10:18:44;;;;;;;26.10;13.40;;;;;;;15.30;43.88;103167.47;5031869;28;20500;-80
2022/03/26 10:21:18;;;;;;;24.27;13.30;;;;;;;15.45;44.99;103174.47;5032670;28;20036;-82
2022/03/26 10:23:45;;;;;;;24.10;13.05;;;;;;;15.51;41.38;103179.72;5032480;28;20524;-78
2022/03/26 10:26:21;;;;;;;27.63;13.75;;;;;;;15.32;41.69;103176.19;5029880;28;20036;-81
2022/03/26 10:28:55;;;;;;;27.10;15.15;;;;;;;15.29;42.28;103179.69;5032550;28;20060;-81
2022/03/26 10:34:15;;;;;;;28.27;14.27;;;;;;;15.39;41.23;103171.84;5032767;28;20094;-82
2022/03/26 10:36:43;;;;;;;26.88;14.30;;;;;;;15.47;41.48;103171.88;5032724;28;20080;-81
2022/03/26 10:39:24;;;;;;;23.17;12.23;;;;;;;15.68;42.18;103165.75;5035415;28;20607;-81
2022/03/26 10:41:52;;;;;;;22.80;11.80;;;;;;;15.94;41.04;103162.31;5035950;28;20040;-81
2022/03/26 10:44:20;;;;;;;27.48;14.73;;;;;;;15.87;41.00;103153.56;5035504;28;20025;-82
2022/03/26 10:46:47;;;;;;;26.10;13.85;;;;;;;15.90;40.24;103149.22;5035112;28;20526;-83
2022/03/26 10:49:23;;;;;;;26.17;13.52;;;;;;;15.91;41.21;103147.47;5035778;28;20465;-93
2022/03/26 10:51:48;;;;;;;23.30;11.52;;;;;;;16.05;40.49;103153.56;5036746;28;20489;-84
2022/03/26 10:54:32;;;;;;;21.70;11.17;;;;;;;16.25;41.60;103149.16;5035322;28;20026;-83
2022/03/26 10:57:00;;;;;;;22.48;10.57;;;;;;;16.46;40.71;103150.84;5036170;28;20026;-82
2022/03/26 10:59:27;;;;;;;25.30;11.48;;;;;;;16.49;40.02;103156.94;5034911;28;20052;-83
2022/03/26 11:01:52;;;;;;;23.80;11.82;;;;;;;16.32;39.86;103159.63;5020371;28;20493;-82
2022/03/26 11:04:18;;;;;;;22.40;11.53;;;;;;;16.28;40.72;103142.16;5015656;28;20105;-85
2022/03/26 11:06:44;;;;;;;20.85;10.38;;;;;;;16.38;41.01;103150.00;5026677;28;20175;-86
2022/03/26 11:09:10;;;;;;;22.58;10.45;;;;;;;16.48;40.46;103146.50;5034022;28;20505;-85
2022/03/26 11:11:36;;;;;;;25.63;11.52;;;;;;;16.55;40.78;103155.22;5035029;28;20037;-85
2022/03/26 11:14:07;;;;;;;24.17;11.20;;;;;;;16.58;41.11;103147.31;5034402;28;20018;-85
2022/03/26 11:17:00;;;;;;;22.00;10.18;;;;;;;16.74;41.33;103149.00;5035510;28;20026;-83
2022/03/26 11:19:44;;;;;;;22.65;11.18;;;;;;;16.52;41.50;103148.19;5035098;28;20103;-84
2022/03/26 11:22:31;;;;;;;23.92;11.68;;;;;;;16.60;41.87;103148.19;5034449;28;20033;-83